NCAR-RAP Real-Time Weather Data

Output produced by METARs form (18 December 2017  10:39 UTC)
found at http://weather.rap.ucar.edu/surface/
 
Conditions at: KTYQ observed 18 December 2017  10:15 UTC
Temperature: 4.1°C (39°F)
Dewpoint: 4.0°C (39°F) [RH = 99%]
Pressure (altimeter): 30.03 inches Hg (1017.0 mb)
Winds: from the SW (220 degrees) at 10 MPH (9 knots; 4.7 m/s)
Visibility: 1.50 miles (2.41 km)
Ceiling: 200 feet AGL
Clouds: overcast cloud deck at 200 feet AGL
Present Weather: BR  (mist)
KTYQ 181015Z AUTO 22009KT 1 1/2SM BR OVC002 04/04 A3003 RMK AO2 T00410040